Time;durP1;ratioP1;P1;durP2;ratioP2;P2;SDS_P1;SDS_P2;PMS_P1;PMS_P2;Temp;Humidity;BMP_temperature;BMP_pressure;BME280_temperature;BME280_humidity;BME280_pressure;Samples;Min_cycle;Max_cycle;Signal;HPM_P1;HPM_P2
2023/08/16 00:12:23;;;;;;;11.30;6.50;;;;;;;28.50;59.51;100555.88;667604;1263;140114;-77
2023/08/16 00:27:27;;;;;;;8.40;6.70;;;;;;;27.58;61.14;100569.48;667210;1265;139684;-77
2023/08/16 00:42:31;;;;;;;7.80;6.20;;;;;;;27.00;62.50;100565.89;667530;1265;139285;-77
2023/08/16 00:57:34;;;;;;;8.20;6.70;;;;;;;26.57;63.48;100551.94;667190;1265;139432;-77
2023/08/16 01:12:55;;;;;;;8.80;7.30;;;;;;;26.27;64.14;100553.68;667416;1267;138424;-76
2023/08/16 01:28:00;;;;;;;10.40;7.40;;;;;;;26.12;64.73;100560.95;666900;1267;140601;-77
2023/08/16 01:43:09;;;;;;;8.40;7.40;;;;;;;25.92;65.55;100560.33;666898;1270;139825;-77
2023/08/16 01:58:12;;;;;;;15.60;9.00;;;;;;;25.46;66.85;100562.27;667184;1267;139525;-78
2023/08/16 02:13:16;;;;;;;12.00;8.40;;;;;;;25.22;67.57;100565.85;666935;1278;139328;-78
2023/08/16 02:28:20;;;;;;;11.50;8.00;;;;;;;24.93;68.35;100562.22;667343;1265;140195;-78
2023/08/16 02:43:23;;;;;;;12.00;7.50;;;;;;;24.75;69.21;100567.27;667570;1265;141835;-77
2023/08/16 02:58:27;;;;;;;11.80;8.70;;;;;;;24.56;69.61;100561.77;667310;1268;140879;-77
2023/08/16 03:13:30;;;;;;;13.20;8.90;;;;;;;24.36;69.83;100560.63;667141;1265;143112;-78
2023/08/16 03:28:33;;;;;;;13.90;9.40;;;;;;;24.29;70.52;100561.81;667202;1268;140764;-77
2023/08/16 03:43:37;;;;;;;105.30;62.40;;;;;;;24.25;70.98;100576.39;666939;1265;139362;-78
2023/08/16 03:58:40;;;;;;;19.10;11.40;;;;;;;24.30;70.96;100577.92;667280;1265;141122;-77
2023/08/16 04:13:44;;;;;;;15.80;9.60;;;;;;;24.26;71.75;100578.66;667421;1265;139852;-77
2023/08/16 04:28:47;;;;;;;14.00;10.40;;;;;;;24.27;72.53;100583.48;667696;1264;139822;-77
2023/08/16 04:43:51;;;;;;;16.00;9.70;;;;;;;24.63;72.49;100595.50;668092;1265;140977;-77
2023/08/16 04:58:55;;;;;;;14.80;10.70;;;;;;;25.06;71.78;100591.69;667505;1265;140010;-78
2023/08/16 05:13:59;;;;;;;17.40;11.30;;;;;;;25.60;71.99;100588.64;667236;1265;141421;-78
2023/08/16 05:29:03;;;;;;;20.00;10.30;;;;;;;26.66;71.79;100590.14;666915;1269;141171;-77
2023/08/16 05:44:07;;;;;;;10.40;7.30;;;;;;;30.83;67.26;100599.11;667609;1265;140015;-77
2023/08/16 05:59:10;;;;;;;10.50;7.40;;;;;;;33.75;60.64;100606.72;667490;1265;139759;-77
2023/08/16 06:14:13;;;;;;;8.60;7.20;;;;;;;35.59;56.82;100605.77;667067;1265;138766;-77
2023/08/16 06:29:17;;;;;;;9.60;6.90;;;;;;;36.73;54.14;100597.70;667135;1267;139173;-77
2023/08/16 06:44:21;;;;;;;10.50;6.00;;;;;;;37.37;52.53;100603.21;667517;1266;139841;-77
2023/08/16 06:59:25;;;;;;;10.70;6.20;;;;;;;37.50;51.93;100607.52;667013;1267;138764;-77
2023/08/16 07:14:29;;;;;;;12.50;6.00;;;;;;;37.07;51.75;100604.67;667548;1266;139830;-78
2023/08/16 07:29:32;;;;;;;11.60;6.60;;;;;;;37.77;49.43;100607.73;667184;1281;139579;-76
2023/08/16 07:44:36;;;;;;;8.30;5.70;;;;;;;38.62;48.20;100609.06;667409;1266;138860;-76
2023/08/16 07:59:40;;;;;;;8.50;5.50;;;;;;;39.04;46.96;100623.33;668002;1276;138162;-77
2023/08/16 08:14:44;;;;;;;7.90;6.40;;;;;;;39.23;46.65;100633.02;667897;1267;139048;-78
2023/08/16 08:29:48;;;;;;;9.40;6.40;;;;;;;39.16;46.44;100628.21;668336;1276;138545;-76
2023/08/16 08:44:53;;;;;;;13.10;5.60;;;;;;;39.41;46.57;100634.27;667914;1267;139398;-79
2023/08/16 09:00:00;;;;;;;97.40;82.10;;;;;;;39.38;47.51;100640.42;668162;1276;139678;-78
2023/08/16 09:15:07;;;;;;;10.80;6.40;;;;;;;38.36;48.12;100638.96;667595;1276;141595;-77
2023/08/16 09:30:13;;;;;;;10.20;5.70;;;;;;;38.75;48.51;100628.94;667296;1277;139343;-77
2023/08/16 09:45:35;;;;;;;7.50;5.70;;;;;;;39.06;47.39;100623.91;667226;1266;139986;-77
2023/08/16 10:00:40;;;;;;;6.60;5.40;;;;;;;39.21;47.02;100623.02;667280;1267;138641;-77
2023/08/16 10:15:46;;;;;;;6.40;5.70;;;;;;;38.93;46.55;100617.98;667039;1267;139863;-77
2023/08/16 10:30:53;;;;;;;12.90;5.90;;;;;;;38.91;46.21;100612.22;667288;1265;139466;-76
2023/08/16 10:46:01;;;;;;;9.60;5.80;;;;;;;39.26;46.50;100607.28;667091;1266;140740;-76
2023/08/16 11:01:08;;;;;;;;;;;;;;;39.21;45.56;100615.98;668530;1267;138477;-79
2023/08/16 11:16:18;;;;;;;7.30;5.90;;;;;;;39.53;45.22;100609.67;667605;1266;126638;-78
2023/08/16 11:31:25;;;;;;;8.40;5.70;;;;;;;40.24;45.48;100612.04;667199;1266;140207;-77
2023/08/16 11:46:41;;;;;;;7.40;6.30;;;;;;;40.52;44.54;100605.81;667448;1264;139635;-77
2023/08/16 12:01:46;;;;;;;6.40;5.80;;;;;;;40.12;44.23;100605.61;667530;1267;140361;-77
2023/08/16 12:16:50;;;;;;;8.90;6.40;;;;;;;40.44;43.85;100597.52;668174;1266;138430;-77
2023/08/16 12:31:55;;;;;;;;;;;;;;;40.80;42.48;100597.41;669267;1267;138568;-76
2023/08/16 12:46:59;;;;;;;6.20;5.60;;;;;;;40.69;41.42;100585.98;670054;1277;124507;-76
2023/08/16 13:02:03;;;;;;;8.20;6.00;;;;;;;41.46;41.85;100578.70;668520;1264;139275;-77
2023/08/16 13:17:17;;;;;;;6.90;5.70;;;;;;;40.66;41.52;100564.42;668772;1266;138742;-79
2023/08/16 13:32:25;;;;;;;10.50;6.60;;;;;;;39.46;42.23;100567.92;668536;1266;140142;-76
2023/08/16 13:47:44;;;;;;;9.50;5.00;;;;;;;39.33;42.63;100562.85;667554;1268;139252;-78
2023/08/16 14:02:48;;;;;;;8.60;5.40;;;;;;;38.91;42.55;100566.42;667699;1277;139118;-78
2023/08/16 14:17:54;;;;;;;5.70;5.00;;;;;;;39.52;42.19;100560.94;668067;1279;138172;-77
2023/08/16 14:32:59;;;;;;;7.70;4.70;;;;;;;39.85;42.30;100556.84;667199;1267;139081;-76
2023/08/16 14:48:04;;;;;;;7.00;4.60;;;;;;;40.38;42.60;100552.52;668095;1266;139199;-77
2023/08/16 15:03:08;;;;;;;6.30;4.60;;;;;;;39.58;41.63;100542.95;667293;1265;139230;-77
2023/08/16 15:18:12;;;;;;;9.30;5.60;;;;;;;39.45;42.96;100543.02;667865;1262;138262;-78
2023/08/16 15:33:16;;;;;;;14.60;5.40;;;;;;;39.04;42.46;100539.55;669068;1266;138516;-81
2023/08/16 15:48:21;;;;;;;14.40;7.10;;;;;;;39.00;42.76;100538.42;671274;1268;141088;-77
2023/08/16 16:03:26;;;;;;;15.60;11.20;;;;;;;38.51;44.51;100538.86;671674;1265;140320;-77
2023/08/16 16:18:32;;;;;;;12.50;6.60;;;;;;;37.69;49.28;100555.32;671670;1264;139306;-78
2023/08/16 16:33:37;;;;;;;12.40;6.00;;;;;;;36.36;55.12;100592.33;671662;1266;140032;-77
2023/08/16 16:48:42;;;;;;;10.90;5.40;;;;;;;35.33;57.98;100608.67;668915;1278;139002;-79
2023/08/16 17:03:48;;;;;;;8.80;5.00;;;;;;;34.62;59.81;100619.36;671685;1265;138643;-78
2023/08/16 17:19:34;;;;;;;7.30;4.80;;;;;;;33.18;62.44;100639.00;650981;1308;545011;-79
2023/08/16 17:34:38;;;;;;;6.70;4.40;;;;;;;32.09;63.76;100658.83;668971;1268;138457;-79
2023/08/16 17:49:43;;;;;;;8.10;3.50;;;;;;;31.30;65.22;100681.37;669262;1271;137932;-76
2023/08/16 18:04:51;;;;;;;6.30;3.20;;;;;;;30.44;67.17;100697.85;666532;1270;139049;-78
2023/08/16 18:19:55;;;;;;;;;;;;;;;29.33;70.63;100739.20;672203;1271;138367;-79
2023/08/16 18:35:00;;;;;;;12.80;7.20;;;;;;;28.69;73.33;100764.02;668973;1277;125215;-78
2023/08/16 18:50:06;;;;;;;6.10;3.60;;;;;;;27.95;74.07;100779.75;668277;1275;139659;-79
2023/08/16 19:05:10;;;;;;;3.60;2.70;;;;;;;27.78;74.86;100789.77;668317;1284;139101;-78
2023/08/16 19:20:14;;;;;;;6.20;2.60;;;;;;;27.74;74.40;100813.20;668239;1271;138667;-78
2023/08/16 19:35:19;;;;;;;5.10;3.20;;;;;;;27.51;74.85;100829.83;668602;1275;140635;-78
2023/08/16 19:50:24;;;;;;;5.80;2.90;;;;;;;27.35;76.20;100835.08;664481;1275;138837;-78
2023/08/16 20:05:30;;;;;;;6.60;3.60;;;;;;;26.93;77.86;100837.31;666360;1275;139743;-78
2023/08/16 20:20:37;;;;;;;3.70;2.80;;;;;;;26.64;79.73;100838.79;668103;1274;138884;-78
2023/08/16 20:35:41;;;;;;;5.40;3.50;;;;;;;26.51;80.09;100840.79;665336;1272;139035;-79
2023/08/16 20:50:46;;;;;;;3.70;3.30;;;;;;;26.36;80.44;100838.59;664671;1274;139225;-78
2023/08/16 21:05:51;;;;;;;6.70;3.90;;;;;;;26.30;80.88;100832.75;673525;1263;138580;-77
2023/08/16 21:20:58;;;;;;;4.70;3.80;;;;;;;26.17;81.02;100844.45;670923;1259;140375;-79
2023/08/16 21:36:04;;;;;;;8.20;4.80;;;;;;;26.08;81.65;100847.38;673348;1262;138961;-79
2023/08/16 21:51:08;;;;;;;5.60;3.90;;;;;;;25.83;82.19;100839.84;672681;1262;140488;-78
2023/08/16 22:06:13;;;;;;;6.30;4.10;;;;;;;25.56;83.01;100821.38;668227;1264;138832;-78
2023/08/16 22:21:17;;;;;;;5.60;3.70;;;;;;;25.45;83.70;100830.02;667534;1262;138924;-78
2023/08/16 22:36:22;;;;;;;5.10;3.50;;;;;;;25.40;82.97;100844.55;668319;1262;139293;-81
2023/08/16 22:51:25;;;;;;;7.90;3.90;;;;;;;25.11;83.06;100835.36;673589;1262;139349;-79
2023/08/16 23:06:30;;;;;;;6.50;3.10;;;;;;;24.83;83.19;100828.54;671387;1263;138908;-79
2023/08/16 23:21:33;;;;;;;6.70;4.00;;;;;;;24.65;83.48;100820.90;673026;1262;140049;-78
2023/08/16 23:36:36;;;;;;;8.10;3.70;;;;;;;24.67;83.34;100836.02;673005;1263;140246;-78
2023/08/16 23:51:40;;;;;;;6.20;3.50;;;;;;;24.60;83.25;100828.01;672790;1262;138696;-78
